sensor_id;sensor_type;location;lat;lon;timestamp;P1;durP1;ratioP1;P2;durP2;ratioP2
54191;SDS011;40101;53.002;6.488;2023-05-07T08:45:49;32.53;;;26.48;;
54191;SDS011;40101;53.002;6.488;2023-05-07T08:48:18;34.58;;;27.02;;
54191;SDS011;40101;53.002;6.488;2023-05-07T08:50:47;32.17;;;25.75;;
54191;SDS011;40101;53.002;6.488;2023-05-07T08:53:12;31.25;;;27.20;;
54191;SDS011;40101;53.002;6.488;2023-05-07T08:55:39;28.30;;;25.30;;
54191;SDS011;40101;53.002;6.488;2023-05-07T08:58:05;30.05;;;25.88;;
54191;SDS011;40101;53.002;6.488;2023-05-07T09:00:32;28.25;;;25.15;;
54191;SDS011;40101;53.002;6.488;2023-05-07T09:02:57;30.08;;;25.80;;
54191;SDS011;40101;53.002;6.488;2023-05-07T09:05:23;31.95;;;26.10;;
54191;SDS011;40101;53.002;6.488;2023-05-07T09:07:49;29.65;;;26.08;;
54191;SDS011;40101;53.002;6.488;2023-05-07T09:10:15;28.30;;;25.17;;
54191;SDS011;40101;53.002;6.488;2023-05-07T09:12:41;27.38;;;23.73;;
54191;SDS011;40101;53.002;6.488;2023-05-07T09:15:07;26.25;;;23.27;;
54191;SDS011;40101;53.002;6.488;2023-05-07T09:17:33;27.35;;;24.10;;
54191;SDS011;40101;53.002;6.488;2023-05-07T09:20:04;29.90;;;24.63;;
54191;SDS011;40101;53.002;6.488;2023-05-07T09:22:31;28.02;;;24.73;;
54191;SDS011;40101;53.002;6.488;2023-05-07T09:24:58;27.98;;;24.02;;
54191;SDS011;40101;53.002;6.488;2023-05-07T09:27:24;27.67;;;23.92;;
54191;SDS011;40101;53.002;6.488;2023-05-07T09:29:50;25.88;;;23.08;;
54191;SDS011;40101;53.002;6.488;2023-05-07T09:32:17;25.25;;;22.15;;
54191;SDS011;40101;53.002;6.488;2023-05-07T09:34:43;24.88;;;20.92;;
54191;SDS011;40101;53.002;6.488;2023-05-07T09:37:08;27.15;;;21.58;;
54191;SDS011;40101;53.002;6.488;2023-05-07T09:39:47;25.70;;;21.08;;
54191;SDS011;40101;53.002;6.488;2023-05-07T09:42:14;23.08;;;20.60;;
54191;SDS011;40101;53.002;6.488;2023-05-07T09:44:40;25.10;;;20.10;;
54191;SDS011;40101;53.002;6.488;2023-05-07T09:47:08;25.38;;;20.08;;
54191;SDS011;40101;53.002;6.488;2023-05-07T09:49:35;26.50;;;21.27;;
54191;SDS011;40101;53.002;6.488;2023-05-07T09:52:04;22.00;;;19.38;;
54191;SDS011;40101;53.002;6.488;2023-05-07T09:54:32;22.73;;;19.65;;
54191;SDS011;40101;53.002;6.488;2023-05-07T09:56:58;21.27;;;19.02;;
54191;SDS011;40101;53.002;6.488;2023-05-07T09:59:27;22.98;;;18.50;;
54191;SDS011;40101;53.002;6.488;2023-05-07T10:01:56;21.17;;;18.98;;
54191;SDS011;40101;53.002;6.488;2023-05-07T10:04:24;20.15;;;17.77;;
54191;SDS011;40101;53.002;6.488;2023-05-07T10:06:51;21.52;;;18.88;;
54191;SDS011;40101;53.002;6.488;2023-05-07T10:09:18;20.35;;;17.52;;
54191;SDS011;40101;53.002;6.488;2023-05-07T10:11:44;19.15;;;16.65;;
54191;SDS011;40101;53.002;6.488;2023-05-07T10:14:11;20.42;;;18.40;;
54191;SDS011;40101;53.002;6.488;2023-05-07T10:16:37;19.98;;;18.02;;
54191;SDS011;40101;53.002;6.488;2023-05-07T10:19:03;20.00;;;17.80;;
54191;SDS011;40101;53.002;6.488;2023-05-07T10:21:30;19.65;;;17.65;;
54191;SDS011;40101;53.002;6.488;2023-05-07T10:26:25;18.17;;;16.35;;
54191;SDS011;40101;53.002;6.488;2023-05-07T10:28:55;19.60;;;17.58;;
54191;SDS011;40101;53.002;6.488;2023-05-07T10:31:42;19.90;;;16.95;;
54191;SDS011;40101;53.002;6.488;2023-05-07T10:34:17;18.13;;;16.33;;
54191;SDS011;40101;53.002;6.488;2023-05-07T10:36:47;18.23;;;16.42;;
54191;SDS011;40101;53.002;6.488;2023-05-07T10:39:13;18.52;;;16.52;;
54191;SDS011;40101;53.002;6.488;2023-05-07T10:41:39;20.42;;;17.33;;
54191;SDS011;40101;53.002;6.488;2023-05-07T10:44:05;18.77;;;16.85;;
54191;SDS011;40101;53.002;6.488;2023-05-07T10:46:31;19.65;;;17.55;;
54191;SDS011;40101;53.002;6.488;2023-05-07T10:51:26;22.00;;;16.63;;
54191;SDS011;40101;53.002;6.488;2023-05-07T10:56:50;18.35;;;15.95;;
54191;SDS011;40101;53.002;6.488;2023-05-07T11:01:59;18.20;;;16.35;;
54191;SDS011;40101;53.002;6.488;2023-05-07T11:04:29;18.58;;;16.67;;
54191;SDS011;40101;53.002;6.488;2023-05-07T11:15:09;19.48;;;16.42;;
54191;SDS011;40101;53.002;6.488;2023-05-07T11:18:09;16.88;;;15.07;;
54191;SDS011;40101;53.002;6.488;2023-05-07T11:23:54;17.25;;;15.48;;
54191;SDS011;40101;53.002;6.488;2023-05-07T11:28:30;18.70;;;16.30;;
54191;SDS011;40101;53.002;6.488;2023-05-07T11:31:01;17.13;;;15.32;;
54191;SDS011;40101;53.002;6.488;2023-05-07T11:33:28;17.92;;;16.02;;
54191;SDS011;40101;53.002;6.488;2023-05-07T11:35:55;17.05;;;15.38;;
54191;SDS011;40101;53.002;6.488;2023-05-07T11:38:21;16.52;;;14.82;;
54191;SDS011;40101;53.002;6.488;2023-05-07T11:40:54;16.98;;;15.25;;
54191;SDS011;40101;53.002;6.488;2023-05-07T11:43:21;16.97;;;15.33;;
54191;SDS011;40101;53.002;6.488;2023-05-07T11:45:47;17.50;;;15.75;;
54191;SDS011;40101;53.002;6.488;2023-05-07T11:48:14;16.95;;;15.20;;
54191;SDS011;40101;53.002;6.488;2023-05-07T11:50:53;18.30;;;15.38;;
54191;SDS011;40101;53.002;6.488;2023-05-07T11:53:35;16.60;;;14.73;;
54191;SDS011;40101;53.002;6.488;2023-05-07T11:58:34;17.98;;;15.15;;
54191;SDS011;40101;53.002;6.488;2023-05-07T12:01:01;41.15;;;18.30;;
54191;SDS011;40101;53.002;6.488;2023-05-07T12:03:27;18.08;;;16.25;;
54191;SDS011;40101;53.002;6.488;2023-05-07T12:05:53;18.50;;;16.60;;
54191;SDS011;40101;53.002;6.488;2023-05-07T12:08:19;17.63;;;15.82;;
54191;SDS011;40101;53.002;6.488;2023-05-07T12:10:47;16.77;;;15.07;;
54191;SDS011;40101;53.002;6.488;2023-05-07T12:13:23;19.02;;;17.08;;
54191;SDS011;40101;53.002;6.488;2023-05-07T12:15:54;17.42;;;15.70;;
54191;SDS011;40101;53.002;6.488;2023-05-07T12:18:21;18.30;;;16.35;;
54191;SDS011;40101;53.002;6.488;2023-05-07T12:20:47;16.63;;;14.88;;
54191;SDS011;40101;53.002;6.488;2023-05-07T12:23:14;19.15;;;17.23;;
54191;SDS011;40101;53.002;6.488;2023-05-07T12:25:41;17.38;;;15.68;;
54191;SDS011;40101;53.002;6.488;2023-05-07T12:28:18;18.95;;;16.13;;
54191;SDS011;40101;53.002;6.488;2023-05-07T12:30:45;17.35;;;15.65;;
54191;SDS011;40101;53.002;6.488;2023-05-07T12:33:12;18.80;;;15.75;;
54191;SDS011;40101;53.002;6.488;2023-05-07T12:35:41;18.58;;;16.75;;
54191;SDS011;40101;53.002;6.488;2023-05-07T12:38:11;16.15;;;14.50;;
54191;SDS011;40101;53.002;6.488;2023-05-07T12:40:41;19.75;;;16.27;;
54191;SDS011;40101;53.002;6.488;2023-05-07T12:43:30;17.92;;;16.10;;
54191;SDS011;40101;53.002;6.488;2023-05-07T12:45:57;16.65;;;14.90;;
54191;SDS011;40101;53.002;6.488;2023-05-07T12:48:24;17.45;;;15.65;;
54191;SDS011;40101;53.002;6.488;2023-05-07T12:50:54;17.50;;;15.80;;
54191;SDS011;40101;53.002;6.488;2023-05-07T12:53:22;16.48;;;14.80;;
54191;SDS011;40101;53.002;6.488;2023-05-07T12:55:50;16.58;;;14.98;;
54191;SDS011;40101;53.002;6.488;2023-05-07T12:58:19;19.15;;;16.77;;
54191;SDS011;40101;53.002;6.488;2023-05-07T13:00:47;17.55;;;15.65;;
54191;SDS011;40101;53.002;6.488;2023-05-07T13:03:20;16.60;;;14.95;;
54191;SDS011;40101;53.002;6.488;2023-05-07T13:05:51;17.73;;;15.93;;
54191;SDS011;40101;53.002;6.488;2023-05-07T13:08:23;17.65;;;15.85;;
54191;SDS011;40101;53.002;6.488;2023-05-07T13:10:59;17.25;;;15.55;;
54191;SDS011;40101;53.002;6.488;2023-05-07T13:13:33;18.02;;;16.13;;
54191;SDS011;40101;53.002;6.488;2023-05-07T13:16:03;17.55;;;15.75;;
54191;SDS011;40101;53.002;6.488;2023-05-07T13:18:30;17.63;;;15.77;;
54191;SDS011;40101;53.002;6.488;2023-05-07T13:20:57;16.80;;;15.20;;
54191;SDS011;40101;53.002;6.488;2023-05-07T13:23:22;16.67;;;15.13;;
54191;SDS011;40101;53.002;6.488;2023-05-07T13:25:49;16.48;;;14.88;;
54191;SDS011;40101;53.002;6.488;2023-05-07T13:28:15;16.25;;;14.52;;
54191;SDS011;40101;53.002;6.488;2023-05-07T13:30:41;15.38;;;13.77;;
54191;SDS011;40101;53.002;6.488;2023-05-07T13:33:06;15.73;;;14.13;;
54191;SDS011;40101;53.002;6.488;2023-05-07T13:35:33;16.33;;;13.45;;
54191;SDS011;40101;53.002;6.488;2023-05-07T13:37:59;16.02;;;14.48;;
54191;SDS011;40101;53.002;6.488;2023-05-07T13:40:24;17.48;;;13.82;;
54191;SDS011;40101;53.002;6.488;2023-05-07T13:42:50;16.50;;;14.65;;
54191;SDS011;40101;53.002;6.488;2023-05-07T13:45:18;14.73;;;13.20;;
54191;SDS011;40101;53.002;6.488;2023-05-07T13:47:44;16.67;;;13.82;;
54191;SDS011;40101;53.002;6.488;2023-05-07T13:50:14;15.10;;;13.65;;
54191;SDS011;40101;53.002;6.488;2023-05-07T13:52:50;15.38;;;13.75;;
54191;SDS011;40101;53.002;6.488;2023-05-07T13:55:19;15.00;;;13.40;;
54191;SDS011;40101;53.002;6.488;2023-05-07T13:57:47;14.15;;;12.85;;
54191;SDS011;40101;53.002;6.488;2023-05-07T14:00:13;13.77;;;12.38;;
54191;SDS011;40101;53.002;6.488;2023-05-07T14:02:39;14.63;;;13.15;;
54191;SDS011;40101;53.002;6.488;2023-05-07T14:05:06;13.70;;;12.35;;
54191;SDS011;40101;53.002;6.488;2023-05-07T14:07:41;16.10;;;13.63;;
54191;SDS011;40101;53.002;6.488;2023-05-07T14:10:07;14.57;;;12.70;;
54191;SDS011;40101;53.002;6.488;2023-05-07T14:12:34;14.45;;;12.95;;
54191;SDS011;40101;53.002;6.488;2023-05-07T14:15:00;12.73;;;11.43;;
54191;SDS011;40101;53.002;6.488;2023-05-07T14:17:25;16.50;;;12.75;;
54191;SDS011;40101;53.002;6.488;2023-05-07T14:19:52;12.82;;;11.13;;
54191;SDS011;40101;53.002;6.488;2023-05-07T14:22:22;12.73;;;11.45;;
54191;SDS011;40101;53.002;6.488;2023-05-07T14:24:48;12.68;;;11.45;;
54191;SDS011;40101;53.002;6.488;2023-05-07T14:27:14;11.35;;;10.30;;
54191;SDS011;40101;53.002;6.488;2023-05-07T14:29:41;11.38;;;10.30;;
54191;SDS011;40101;53.002;6.488;2023-05-07T14:32:14;11.82;;;10.73;;
54191;SDS011;40101;53.002;6.488;2023-05-07T14:34:40;13.68;;;9.95;;
54191;SDS011;40101;53.002;6.488;2023-05-07T14:37:06;10.00;;;8.95;;
54191;SDS011;40101;53.002;6.488;2023-05-07T14:39:31;9.88;;;8.98;;
54191;SDS011;40101;53.002;6.488;2023-05-07T14:41:58;10.77;;;9.63;;
54191;SDS011;40101;53.002;6.488;2023-05-07T14:44:42;12.40;;;10.98;;
54191;SDS011;40101;53.002;6.488;2023-05-07T14:50:11;12.43;;;11.07;;
54191;SDS011;40101;53.002;6.488;2023-05-07T14:52:45;11.25;;;10.15;;
54191;SDS011;40101;53.002;6.488;2023-05-07T14:55:11;12.02;;;10.93;;
54191;SDS011;40101;53.002;6.488;2023-05-07T14:57:37;10.75;;;9.75;;
54191;SDS011;40101;53.002;6.488;2023-05-07T15:00:06;10.75;;;9.75;;
54191;SDS011;40101;53.002;6.488;2023-05-07T15:02:32;11.68;;;10.48;;
54191;SDS011;40101;53.002;6.488;2023-05-07T15:07:53;11.13;;;10.13;;
54191;SDS011;40101;53.002;6.488;2023-05-07T15:10:19;11.35;;;10.25;;
54191;SDS011;40101;53.002;6.488;2023-05-07T15:12:44;11.38;;;10.18;;
54191;SDS011;40101;53.002;6.488;2023-05-07T15:15:10;10.65;;;9.55;;
54191;SDS011;40101;53.002;6.488;2023-05-07T15:17:36;10.38;;;9.38;;
54191;SDS011;40101;53.002;6.488;2023-05-07T15:20:02;10.23;;;8.93;;
54191;SDS011;40101;53.002;6.488;2023-05-07T15:22:29;10.52;;;9.43;;
54191;SDS011;40101;53.002;6.488;2023-05-07T15:24:55;9.85;;;8.65;;
54191;SDS011;40101;53.002;6.488;2023-05-07T15:27:22;10.38;;;9.43;;
54191;SDS011;40101;53.002;6.488;2023-05-07T15:29:47;11.38;;;9.52;;
54191;SDS011;40101;53.002;6.488;2023-05-07T15:32:13;10.57;;;9.68;;
54191;SDS011;40101;53.002;6.488;2023-05-07T15:34:39;9.82;;;8.88;;
54191;SDS011;40101;53.002;6.488;2023-05-07T15:37:07;9.98;;;9.18;;
54191;SDS011;40101;53.002;6.488;2023-05-07T15:39:33;9.50;;;8.57;;
54191;SDS011;40101;53.002;6.488;2023-05-07T15:41:58;11.20;;;9.60;;
54191;SDS011;40101;53.002;6.488;2023-05-07T15:44:24;10.90;;;9.90;;
54191;SDS011;40101;53.002;6.488;2023-05-07T15:46:55;12.10;;;10.85;;
54191;SDS011;40101;53.002;6.488;2023-05-07T15:49:21;9.57;;;8.63;;
54191;SDS011;40101;53.002;6.488;2023-05-07T15:51:47;11.40;;;9.65;;
54191;SDS011;40101;53.002;6.488;2023-05-07T15:54:13;12.00;;;10.07;;
54191;SDS011;40101;53.002;6.488;2023-05-07T15:56:41;11.57;;;10.13;;
54191;SDS011;40101;53.002;6.488;2023-05-07T15:59:06;9.45;;;8.45;;
54191;SDS011;40101;53.002;6.488;2023-05-07T16:01:34;11.73;;;10.63;;
54191;SDS011;40101;53.002;6.488;2023-05-07T16:03:59;12.15;;;10.63;;
54191;SDS011;40101;53.002;6.488;2023-05-07T16:06:25;11.02;;;9.85;;
54191;SDS011;40101;53.002;6.488;2023-05-07T16:08:51;11.20;;;10.10;;
54191;SDS011;40101;53.002;6.488;2023-05-07T16:11:17;11.93;;;10.77;;
54191;SDS011;40101;53.002;6.488;2023-05-07T16:13:43;11.73;;;10.45;;
54191;SDS011;40101;53.002;6.488;2023-05-07T16:16:08;11.48;;;10.38;;
54191;SDS011;40101;53.002;6.488;2023-05-07T16:18:34;10.90;;;9.90;;
54191;SDS011;40101;53.002;6.488;2023-05-07T16:21:01;12.13;;;11.02;;
54191;SDS011;40101;53.002;6.488;2023-05-07T16:23:27;11.60;;;10.40;;
54191;SDS011;40101;53.002;6.488;2023-05-07T16:25:52;13.52;;;10.75;;
54191;SDS011;40101;53.002;6.488;2023-05-07T16:28:18;12.13;;;10.93;;
54191;SDS011;40101;53.002;6.488;2023-05-07T16:30:44;12.10;;;10.93;;
54191;SDS011;40101;53.002;6.488;2023-05-07T16:33:10;12.15;;;11.05;;
54191;SDS011;40101;53.002;6.488;2023-05-07T16:35:35;12.10;;;10.93;;
54191;SDS011;40101;53.002;6.488;2023-05-07T16:38:01;11.95;;;10.85;;
54191;SDS011;40101;53.002;6.488;2023-05-07T16:40:34;12.25;;;11.07;;
54191;SDS011;40101;53.002;6.488;2023-05-07T16:43:02;12.15;;;10.93;;
54191;SDS011;40101;53.002;6.488;2023-05-07T16:45:28;14.20;;;12.80;;
54191;SDS011;40101;53.002;6.488;2023-05-07T16:47:53;14.68;;;13.23;;
54191;SDS011;40101;53.002;6.488;2023-05-07T16:50:20;13.82;;;12.43;;
54191;SDS011;40101;53.002;6.488;2023-05-07T16:52:46;13.95;;;12.65;;
54191;SDS011;40101;53.002;6.488;2023-05-07T16:55:18;14.95;;;13.65;;
54191;SDS011;40101;53.002;6.488;2023-05-07T16:57:48;14.75;;;13.35;;
54191;SDS011;40101;53.002;6.488;2023-05-07T17:00:40;15.68;;;14.15;;
54191;SDS011;40101;53.002;6.488;2023-05-07T17:16:24;14.02;;;12.65;;
54191;SDS011;40101;53.002;6.488;2023-05-07T17:18:50;13.25;;;12.02;;
54191;SDS011;40101;53.002;6.488;2023-05-07T17:21:24;14.38;;;13.07;;
54191;SDS011;40101;53.002;6.488;2023-05-07T17:24:06;13.77;;;12.52;;
54191;SDS011;40101;53.002;6.488;2023-05-07T17:26:32;14.73;;;13.25;;
54191;SDS011;40101;53.002;6.488;2023-05-07T17:29:07;15.00;;;13.65;;
54191;SDS011;40101;53.002;6.488;2023-05-07T17:38:56;14.02;;;12.68;;
54191;SDS011;40101;53.002;6.488;2023-05-07T17:41:22;14.35;;;12.95;;
54191;SDS011;40101;53.002;6.488;2023-05-07T17:43:48;14.38;;;12.98;;
54191;SDS011;40101;53.002;6.488;2023-05-07T17:52:30;16.02;;;14.43;;
54191;SDS011;40101;53.002;6.488;2023-05-07T17:54:56;14.30;;;13.00;;
54191;SDS011;40101;53.002;6.488;2023-05-07T17:57:23;14.50;;;13.20;;
54191;SDS011;40101;53.002;6.488;2023-05-07T17:59:49;15.88;;;14.18;;
54191;SDS011;40101;53.002;6.488;2023-05-07T18:02:14;15.30;;;13.73;;
54191;SDS011;40101;53.002;6.488;2023-05-07T18:04:40;15.55;;;14.05;;
54191;SDS011;40101;53.002;6.488;2023-05-07T18:07:08;14.30;;;13.00;;
54191;SDS011;40101;53.002;6.488;2023-05-07T18:09:34;14.48;;;13.18;;
54191;SDS011;40101;53.002;6.488;2023-05-07T18:12:00;15.60;;;13.20;;
54191;SDS011;40101;53.002;6.488;2023-05-07T18:14:26;15.02;;;12.80;;
54191;SDS011;40101;53.002;6.488;2023-05-07T18:16:51;15.77;;;14.13;;
54191;SDS011;40101;53.002;6.488;2023-05-07T18:19:18;15.73;;;14.23;;
54191;SDS011;40101;53.002;6.488;2023-05-07T18:21:44;15.73;;;14.15;;
54191;SDS011;40101;53.002;6.488;2023-05-07T18:24:09;15.90;;;14.40;;
54191;SDS011;40101;53.002;6.488;2023-05-07T18:26:36;16.08;;;14.57;;
54191;SDS011;40101;53.002;6.488;2023-05-07T18:29:09;16.77;;;15.17;;
54191;SDS011;40101;53.002;6.488;2023-05-07T18:32:18;16.45;;;14.85;;
54191;SDS011;40101;53.002;6.488;2023-05-07T18:34:35;17.08;;;15.38;;
54191;SDS011;40101;53.002;6.488;2023-05-07T18:37:01;16.08;;;14.10;;
54191;SDS011;40101;53.002;6.488;2023-05-07T18:39:27;16.85;;;15.25;;
54191;SDS011;40101;53.002;6.488;2023-05-07T18:41:52;15.25;;;13.80;;
54191;SDS011;40101;53.002;6.488;2023-05-07T18:44:19;14.35;;;13.02;;
54191;SDS011;40101;53.002;6.488;2023-05-07T18:46:45;15.35;;;13.95;;
54191;SDS011;40101;53.002;6.488;2023-05-07T18:49:11;15.38;;;13.75;;
54191;SDS011;40101;53.002;6.488;2023-05-07T18:51:37;16.10;;;14.60;;
54191;SDS011;40101;53.002;6.488;2023-05-07T18:54:03;15.93;;;14.27;;
54191;SDS011;40101;53.002;6.488;2023-05-07T18:56:28;15.27;;;13.88;;
54191;SDS011;40101;53.002;6.488;2023-05-07T18:58:54;17.08;;;15.27;;
54191;SDS011;40101;53.002;6.488;2023-05-07T19:01:20;17.38;;;15.80;;
54191;SDS011;40101;53.002;6.488;2023-05-07T19:03:46;16.17;;;14.68;;
54191;SDS011;40101;53.002;6.488;2023-05-07T19:06:12;17.80;;;15.23;;
54191;SDS011;40101;53.002;6.488;2023-05-07T19:08:38;16.30;;;14.63;;
54191;SDS011;40101;53.002;6.488;2023-05-07T19:11:05;17.02;;;15.43;;
54191;SDS011;40101;53.002;6.488;2023-05-07T19:13:31;16.95;;;15.25;;
54191;SDS011;40101;53.002;6.488;2023-05-07T19:15:57;16.50;;;14.90;;
54191;SDS011;40101;53.002;6.488;2023-05-07T19:18:23;16.83;;;15.23;;
54191;SDS011;40101;53.002;6.488;2023-05-07T19:20:49;17.50;;;15.82;;
54191;SDS011;40101;53.002;6.488;2023-05-07T19:23:15;24.15;;;16.10;;
54191;SDS011;40101;53.002;6.488;2023-05-07T19:25:41;16.60;;;14.90;;
54191;SDS011;40101;53.002;6.488;2023-05-07T19:28:07;15.57;;;14.18;;
54191;SDS011;40101;53.002;6.488;2023-05-07T19:30:36;16.55;;;14.95;;
54191;SDS011;40101;53.002;6.488;2023-05-07T19:33:03;14.38;;;12.88;;
54191;SDS011;40101;53.002;6.488;2023-05-07T19:35:30;14.73;;;13.32;;
54191;SDS011;40101;53.002;6.488;2023-05-07T19:37:56;14.45;;;13.07;;
54191;SDS011;40101;53.002;6.488;2023-05-07T19:40:21;17.13;;;15.52;;
54191;SDS011;40101;53.002;6.488;2023-05-07T19:42:47;15.52;;;14.00;;
54191;SDS011;40101;53.002;6.488;2023-05-07T19:45:13;14.95;;;13.55;;
54191;SDS011;40101;53.002;6.488;2023-05-07T19:47:40;15.43;;;12.50;;
54191;SDS011;40101;53.002;6.488;2023-05-07T19:50:06;15.50;;;12.60;;
54191;SDS011;40101;53.002;6.488;2023-05-07T19:52:34;14.23;;;12.75;;
54191;SDS011;40101;53.002;6.488;2023-05-07T19:55:00;13.48;;;12.13;;
54191;SDS011;40101;53.002;6.488;2023-05-07T19:57:26;14.13;;;12.77;;
54191;SDS011;40101;53.002;6.488;2023-05-07T19:59:55;13.48;;;12.27;;
54191;SDS011;40101;53.002;6.488;2023-05-07T20:02:21;13.85;;;12.45;;
54191;SDS011;40101;53.002;6.488;2023-05-07T20:04:47;12.73;;;11.48;;
54191;SDS011;40101;53.002;6.488;2023-05-07T20:07:15;12.40;;;11.27;;
54191;SDS011;40101;53.002;6.488;2023-05-07T20:09:40;12.25;;;11.13;;
54191;SDS011;40101;53.002;6.488;2023-05-07T20:12:06;12.88;;;11.60;;
54191;SDS011;40101;53.002;6.488;2023-05-07T20:14:32;11.38;;;10.27;;
54191;SDS011;40101;53.002;6.488;2023-05-07T20:16:58;13.82;;;12.40;;
54191;SDS011;40101;53.002;6.488;2023-05-07T20:19:24;12.13;;;11.02;;
54191;SDS011;40101;53.002;6.488;2023-05-07T20:21:52;12.07;;;10.88;;
54191;SDS011;40101;53.002;6.488;2023-05-07T20:24:18;13.48;;;10.70;;
54191;SDS011;40101;53.002;6.488;2023-05-07T20:26:44;11.85;;;10.75;;
54191;SDS011;40101;53.002;6.488;2023-05-07T20:29:10;12.27;;;11.10;;
54191;SDS011;40101;53.002;6.488;2023-05-07T20:31:39;12.82;;;11.45;;
54191;SDS011;40101;53.002;6.488;2023-05-07T20:34:05;11.25;;;10.13;;
54191;SDS011;40101;53.002;6.488;2023-05-07T20:36:31;12.52;;;11.32;;
54191;SDS011;40101;53.002;6.488;2023-05-07T20:38:57;11.43;;;10.23;;
54191;SDS011;40101;53.002;6.488;2023-05-07T20:41:22;11.85;;;10.73;;
54191;SDS011;40101;53.002;6.488;2023-05-07T20:43:51;12.77;;;10.80;;
54191;SDS011;40101;53.002;6.488;2023-05-07T20:46:16;11.60;;;10.50;;
54191;SDS011;40101;53.002;6.488;2023-05-07T20:48:46;11.55;;;10.45;;
54191;SDS011;40101;53.002;6.488;2023-05-07T20:51:12;12.15;;;11.05;;
54191;SDS011;40101;53.002;6.488;2023-05-07T20:53:39;13.52;;;10.77;;
54191;SDS011;40101;53.002;6.488;2023-05-07T20:56:07;11.85;;;10.73;;
54191;SDS011;40101;53.002;6.488;2023-05-07T20:58:33;12.82;;;11.60;;
54191;SDS011;40101;53.002;6.488;2023-05-07T21:00:59;12.82;;;11.30;;
54191;SDS011;40101;53.002;6.488;2023-05-07T21:03:25;13.57;;;10.38;;
54191;SDS011;40101;53.002;6.488;2023-05-07T21:05:51;11.52;;;10.18;;
54191;SDS011;40101;53.002;6.488;2023-05-07T21:08:17;12.70;;;11.50;;
54191;SDS011;40101;53.002;6.488;2023-05-07T21:10:44;12.02;;;10.93;;
54191;SDS011;40101;53.002;6.488;2023-05-07T21:13:10;12.20;;;10.32;;
54191;SDS011;40101;53.002;6.488;2023-05-07T21:15:36;11.55;;;10.43;;
54191;SDS011;40101;53.002;6.488;2023-05-07T21:18:02;11.23;;;10.13;;
54191;SDS011;40101;53.002;6.488;2023-05-07T21:20:28;10.98;;;9.95;;
54191;SDS011;40101;53.002;6.488;2023-05-07T21:22:54;10.93;;;9.82;;
54191;SDS011;40101;53.002;6.488;2023-05-07T21:25:20;11.52;;;10.43;;
54191;SDS011;40101;53.002;6.488;2023-05-07T21:27:45;11.27;;;10.23;;
54191;SDS011;40101;53.002;6.488;2023-05-07T21:30:13;11.02;;;9.93;;
54191;SDS011;40101;53.002;6.488;2023-05-07T21:32:40;11.10;;;10.10;;
54191;SDS011;40101;53.002;6.488;2023-05-07T21:35:06;10.32;;;9.25;;
54191;SDS011;40101;53.002;6.488;2023-05-07T21:37:32;10.80;;;9.68;;
54191;SDS011;40101;53.002;6.488;2023-05-07T21:39:58;10.20;;;9.23;;
54191;SDS011;40101;53.002;6.488;2023-05-07T21:42:23;11.80;;;10.65;;
54191;SDS011;40101;53.002;6.488;2023-05-07T21:44:49;10.65;;;9.55;;
54191;SDS011;40101;53.002;6.488;2023-05-07T21:47:15;10.75;;;9.65;;
54191;SDS011;40101;53.002;6.488;2023-05-07T21:49:42;10.30;;;9.18;;
54191;SDS011;40101;53.002;6.488;2023-05-07T21:52:11;11.68;;;9.60;;
54191;SDS011;40101;53.002;6.488;2023-05-07T21:54:37;14.35;;;9.80;;
54191;SDS011;40101;53.002;6.488;2023-05-07T21:57:03;11.48;;;10.30;;
54191;SDS011;40101;53.002;6.488;2023-05-07T21:59:29;11.77;;;9.73;;
54191;SDS011;40101;53.002;6.488;2023-05-07T22:01:55;10.32;;;9.23;;
54191;SDS011;40101;53.002;6.488;2023-05-07T22:04:22;10.45;;;9.45;;
54191;SDS011;40101;53.002;6.488;2023-05-07T22:06:48;10.30;;;9.30;;
54191;SDS011;40101;53.002;6.488;2023-05-07T22:09:14;10.90;;;9.57;;
54191;SDS011;40101;53.002;6.488;2023-05-07T22:11:39;10.88;;;9.63;;
54191;SDS011;40101;53.002;6.488;2023-05-07T22:14:05;10.85;;;9.75;;
54191;SDS011;40101;53.002;6.488;2023-05-07T22:16:31;12.38;;;9.88;;
54191;SDS011;40101;53.002;6.488;2023-05-07T22:18:57;12.07;;;9.27;;
54191;SDS011;40101;53.002;6.488;2023-05-07T22:21:22;11.77;;;10.63;;
54191;SDS011;40101;53.002;6.488;2023-05-07T22:23:48;10.38;;;9.35;;
54191;SDS011;40101;53.002;6.488;2023-05-07T22:26:14;10.48;;;9.48;;
54191;SDS011;40101;53.002;6.488;2023-05-07T22:28:40;11.73;;;10.52;;
54191;SDS011;40101;53.002;6.488;2023-05-07T22:31:05;11.40;;;10.20;;
54191;SDS011;40101;53.002;6.488;2023-05-07T22:33:31;11.10;;;10.10;;
54191;SDS011;40101;53.002;6.488;2023-05-07T22:35:57;10.63;;;9.52;;
54191;SDS011;40101;53.002;6.488;2023-05-07T22:38:23;11.52;;;9.68;;
54191;SDS011;40101;53.002;6.488;2023-05-07T22:40:50;11.95;;;10.25;;
54191;SDS011;40101;53.002;6.488;2023-05-07T22:43:16;10.52;;;9.57;;
54191;SDS011;40101;53.002;6.488;2023-05-07T22:45:41;10.52;;;9.52;;
54191;SDS011;40101;53.002;6.488;2023-05-07T22:48:07;11.13;;;9.48;;
54191;SDS011;40101;53.002;6.488;2023-05-07T22:50:38;11.05;;;9.98;;
54191;SDS011;40101;53.002;6.488;2023-05-07T22:53:04;10.95;;;9.95;;
54191;SDS011;40101;53.002;6.488;2023-05-07T22:55:31;11.40;;;10.30;;
54191;SDS011;40101;53.002;6.488;2023-05-07T22:57:57;10.88;;;9.80;;
54191;SDS011;40101;53.002;6.488;2023-05-07T23:00:22;10.60;;;9.55;;
54191;SDS011;40101;53.002;6.488;2023-05-07T23:02:48;11.10;;;9.43;;
54191;SDS011;40101;53.002;6.488;2023-05-07T23:05:14;11.00;;;9.88;;
54191;SDS011;40101;53.002;6.488;2023-05-07T23:07:40;11.15;;;10.05;;
54191;SDS011;40101;53.002;6.488;2023-05-07T23:10:06;11.20;;;10.00;;
54191;SDS011;40101;53.002;6.488;2023-05-07T23:12:32;11.95;;;10.55;;
54191;SDS011;40101;53.002;6.488;2023-05-07T23:14:58;11.77;;;10.50;;
54191;SDS011;40101;53.002;6.488;2023-05-07T23:17:23;12.07;;;10.90;;
54191;SDS011;40101;53.002;6.488;2023-05-07T23:19:49;11.18;;;10.18;;
54191;SDS011;40101;53.002;6.488;2023-05-07T23:22:15;12.68;;;11.48;;
54191;SDS011;40101;53.002;6.488;2023-05-07T23:24:41;12.68;;;11.43;;
54191;SDS011;40101;53.002;6.488;2023-05-07T23:27:07;12.10;;;10.82;;
54191;SDS011;40101;53.002;6.488;2023-05-07T23:29:33;14.27;;;12.68;;
54191;SDS011;40101;53.002;6.488;2023-05-07T23:31:59;12.90;;;11.50;;
54191;SDS011;40101;53.002;6.488;2023-05-07T23:34:25;12.20;;;10.98;;
54191;SDS011;40101;53.002;6.488;2023-05-07T23:36:51;12.73;;;11.52;;
54191;SDS011;40101;53.002;6.488;2023-05-07T23:39:17;13.18;;;11.88;;
54191;SDS011;40101;53.002;6.488;2023-05-07T23:41:44;13.50;;;12.13;;
54191;SDS011;40101;53.002;6.488;2023-05-07T23:44:09;12.98;;;11.65;;
54191;SDS011;40101;53.002;6.488;2023-05-07T23:46:35;14.80;;;12.77;;
54191;SDS011;40101;53.002;6.488;2023-05-07T23:49:01;15.30;;;12.70;;
54191;SDS011;40101;53.002;6.488;2023-05-07T23:51:27;15.60;;;12.07;;
54191;SDS011;40101;53.002;6.488;2023-05-07T23:53:52;14.05;;;12.45;;
54191;SDS011;40101;53.002;6.488;2023-05-07T23:56:18;12.75;;;11.45;;
54191;SDS011;40101;53.002;6.488;2023-05-07T23:58:44;14.45;;;12.65;;
